Cambridge, Canada
Current Conditions -  °F | °C
As of 1:57 AM on Tuesday 21 Oct 2014 (Local Time) from CYKF Reporting Station
Haze Haze  
Wind Chill: 45°   Ceiling: 6000
Heat Index: 48°   Visibility: 6mi
Dew Point: 46°   Wind: 7mph
Humidity: 93%   Direction: 300°WNW
Pressure: 29.79"   Gusts: NA
Location:  43.38°N, 80.32°W
Report Text: CYKF 210557Z AUTO 30006KT 6SM BR FEW050 OVC060 09/08 A2979 RMK SLP090
Loading
Personal Weather Stations






























Interactive Weather Map
Tropical Storm Tracking
New forecast layout! Learn more

10-Day Weather Forecast

Advertisements
Track Severe Weather on mobile